臺北終端管制區 - 桃園北區雷達席

METAR RCTP 270900Z 06019KT 9999 FEW020 26/18 Q1012 WS R05R NOSIG RMK A2990=

站台狀態:Online
最後更新:2020-10-27 17:00:01